sensor_id;sensor_type;location;lat;lon;timestamp;P1;durP1;ratioP1;P2;durP2;ratioP2
41719;SDS011;27405;53.316;-6.294;2023-02-17T00:00:22;5.20;;;1.42;;
41719;SDS011;27405;53.316;-6.294;2023-02-17T00:02:48;8.10;;;1.83;;
41719;SDS011;27405;53.316;-6.294;2023-02-17T00:05:14;7.82;;;2.05;;
41719;SDS011;27405;53.316;-6.294;2023-02-17T00:07:40;6.43;;;1.55;;
41719;SDS011;27405;53.316;-6.294;2023-02-17T00:10:06;8.23;;;1.83;;
41719;SDS011;27405;53.316;-6.294;2023-02-17T00:12:32;3.58;;;1.33;;
41719;SDS011;27405;53.316;-6.294;2023-02-17T00:14:58;6.70;;;1.60;;
41719;SDS011;27405;53.316;-6.294;2023-02-17T00:17:24;4.05;;;1.55;;
41719;SDS011;27405;53.316;-6.294;2023-02-17T00:19:52;4.32;;;1.30;;
41719;SDS011;27405;53.316;-6.294;2023-02-17T00:22:19;4.72;;;1.50;;
41719;SDS011;27405;53.316;-6.294;2023-02-17T00:24:44;4.28;;;1.27;;
41719;SDS011;27405;53.316;-6.294;2023-02-17T00:27:10;5.50;;;1.67;;
41719;SDS011;27405;53.316;-6.294;2023-02-17T00:29:36;4.93;;;1.20;;
41719;SDS011;27405;53.316;-6.294;2023-02-17T00:32:01;6.35;;;1.60;;
41719;SDS011;27405;53.316;-6.294;2023-02-17T00:34:28;5.88;;;1.38;;
41719;SDS011;27405;53.316;-6.294;2023-02-17T00:36:54;5.72;;;1.17;;
41719;SDS011;27405;53.316;-6.294;2023-02-17T00:39:19;4.30;;;1.40;;
41719;SDS011;27405;53.316;-6.294;2023-02-17T00:41:45;4.55;;;1.20;;
41719;SDS011;27405;53.316;-6.294;2023-02-17T00:44:18;6.78;;;1.40;;
41719;SDS011;27405;53.316;-6.294;2023-02-17T00:46:45;6.82;;;1.13;;
41719;SDS011;27405;53.316;-6.294;2023-02-17T00:49:22;4.82;;;1.33;;
41719;SDS011;27405;53.316;-6.294;2023-02-17T00:51:49;6.00;;;1.10;;
41719;SDS011;27405;53.316;-6.294;2023-02-17T00:54:15;3.20;;;1.20;;
41719;SDS011;27405;53.316;-6.294;2023-02-17T00:56:41;4.03;;;1.90;;
41719;SDS011;27405;53.316;-6.294;2023-02-17T00:59:07;6.32;;;1.30;;
41719;SDS011;27405;53.316;-6.294;2023-02-17T01:01:34;4.28;;;1.17;;
41719;SDS011;27405;53.316;-6.294;2023-02-17T01:04:00;6.63;;;1.10;;
41719;SDS011;27405;53.316;-6.294;2023-02-17T01:06:27;5.53;;;1.02;;
41719;SDS011;27405;53.316;-6.294;2023-02-17T01:08:59;6.03;;;1.42;;
41719;SDS011;27405;53.316;-6.294;2023-02-17T01:11:26;3.85;;;1.27;;
41719;SDS011;27405;53.316;-6.294;2023-02-17T01:13:54;3.50;;;1.30;;
41719;SDS011;27405;53.316;-6.294;2023-02-17T01:16:24;4.50;;;1.30;;
41719;SDS011;27405;53.316;-6.294;2023-02-17T01:18:52;2.67;;;0.95;;
41719;SDS011;27405;53.316;-6.294;2023-02-17T01:21:18;5.18;;;1.38;;
41719;SDS011;27405;53.316;-6.294;2023-02-17T01:23:49;6.68;;;1.48;;
41719;SDS011;27405;53.316;-6.294;2023-02-17T01:26:17;6.05;;;1.20;;
41719;SDS011;27405;53.316;-6.294;2023-02-17T01:28:45;3.78;;;1.10;;
41719;SDS011;27405;53.316;-6.294;2023-02-17T01:31:12;4.15;;;1.20;;
41719;SDS011;27405;53.316;-6.294;2023-02-17T01:33:39;3.92;;;1.20;;
41719;SDS011;27405;53.316;-6.294;2023-02-17T01:36:05;5.20;;;1.20;;
41719;SDS011;27405;53.316;-6.294;2023-02-17T01:38:33;3.27;;;1.40;;
41719;SDS011;27405;53.316;-6.294;2023-02-17T01:41:01;3.85;;;0.90;;
41719;SDS011;27405;53.316;-6.294;2023-02-17T01:43:27;3.38;;;0.90;;
41719;SDS011;27405;53.316;-6.294;2023-02-17T01:45:55;1.15;;;0.63;;
41719;SDS011;27405;53.316;-6.294;2023-02-17T01:50:54;3.10;;;0.75;;
41719;SDS011;27405;53.316;-6.294;2023-02-17T01:53:34;3.15;;;1.10;;
41719;SDS011;27405;53.316;-6.294;2023-02-17T01:56:07;1.88;;;0.50;;
41719;SDS011;27405;53.316;-6.294;2023-02-17T01:58:37;3.42;;;0.88;;
41719;SDS011;27405;53.316;-6.294;2023-02-17T02:01:05;4.18;;;1.05;;
41719;SDS011;27405;53.316;-6.294;2023-02-17T02:03:32;2.10;;;0.80;;
41719;SDS011;27405;53.316;-6.294;2023-02-17T02:06:00;1.52;;;0.70;;
41719;SDS011;27405;53.316;-6.294;2023-02-17T02:08:33;2.70;;;0.57;;
41719;SDS011;27405;53.316;-6.294;2023-02-17T02:11:06;4.32;;;0.70;;
41719;SDS011;27405;53.316;-6.294;2023-02-17T02:13:32;3.05;;;0.73;;
41719;SDS011;27405;53.316;-6.294;2023-02-17T02:16:00;1.33;;;0.43;;
41719;SDS011;27405;53.316;-6.294;2023-02-17T02:18:48;1.80;;;0.70;;
41719;SDS011;27405;53.316;-6.294;2023-02-17T02:27:08;2.03;;;0.40;;
41719;SDS011;27405;53.316;-6.294;2023-02-17T02:32:48;0.40;;;0.35;;
41719;SDS011;27405;53.316;-6.294;2023-02-17T02:40:56;0.75;;;0.32;;
41719;SDS011;27405;53.316;-6.294;2023-02-17T02:43:29;2.72;;;0.30;;
41719;SDS011;27405;53.316;-6.294;2023-02-17T02:45:56;2.30;;;0.52;;
41719;SDS011;27405;53.316;-6.294;2023-02-17T02:48:21;0.77;;;0.30;;
41719;SDS011;27405;53.316;-6.294;2023-02-17T02:51:03;0.93;;;0.22;;
41719;SDS011;27405;53.316;-6.294;2023-02-17T02:56:38;0.55;;;0.32;;
41719;SDS011;27405;53.316;-6.294;2023-02-17T03:02:07;0.45;;;0.35;;
41719;SDS011;27405;53.316;-6.294;2023-02-17T03:04:50;0.57;;;0.40;;
41719;SDS011;27405;53.316;-6.294;2023-02-17T03:07:31;0.77;;;0.30;;
41719;SDS011;27405;53.316;-6.294;2023-02-17T03:10:02;0.43;;;0.30;;
41719;SDS011;27405;53.316;-6.294;2023-02-17T03:12:29;0.20;;;0.20;;
41719;SDS011;27405;53.316;-6.294;2023-02-17T03:14:57;1.55;;;0.40;;
41719;SDS011;27405;53.316;-6.294;2023-02-17T03:17:29;0.32;;;0.30;;
41719;SDS011;27405;53.316;-6.294;2023-02-17T03:19:58;1.45;;;0.40;;
41719;SDS011;27405;53.316;-6.294;2023-02-17T03:22:29;1.88;;;0.30;;
41719;SDS011;27405;53.316;-6.294;2023-02-17T03:24:59;1.20;;;0.40;;
41719;SDS011;27405;53.316;-6.294;2023-02-17T03:27:25;2.38;;;0.38;;
41719;SDS011;27405;53.316;-6.294;2023-02-17T03:29:52;1.02;;;0.40;;
41719;SDS011;27405;53.316;-6.294;2023-02-17T03:32:18;2.13;;;0.40;;
41719;SDS011;27405;53.316;-6.294;2023-02-17T03:34:44;0.20;;;0.20;;
41719;SDS011;27405;53.316;-6.294;2023-02-17T03:37:10;0.47;;;0.32;;
41719;SDS011;27405;53.316;-6.294;2023-02-17T03:39:35;1.35;;;0.40;;
41719;SDS011;27405;53.316;-6.294;2023-02-17T03:42:01;1.67;;;0.32;;
41719;SDS011;27405;53.316;-6.294;2023-02-17T03:44:27;0.20;;;0.20;;
41719;SDS011;27405;53.316;-6.294;2023-02-17T03:46:53;0.98;;;0.30;;
41719;SDS011;27405;53.316;-6.294;2023-02-17T03:49:18;0.55;;;0.28;;
41719;SDS011;27405;53.316;-6.294;2023-02-17T03:51:44;1.75;;;0.40;;
41719;SDS011;27405;53.316;-6.294;2023-02-17T03:54:10;1.17;;;0.40;;
41719;SDS011;27405;53.316;-6.294;2023-02-17T03:56:36;0.63;;;0.30;;
41719;SDS011;27405;53.316;-6.294;2023-02-17T03:59:02;1.05;;;0.30;;
41719;SDS011;27405;53.316;-6.294;2023-02-17T04:01:28;0.93;;;0.30;;
41719;SDS011;27405;53.316;-6.294;2023-02-17T04:03:54;0.98;;;0.30;;
41719;SDS011;27405;53.316;-6.294;2023-02-17T04:06:19;0.17;;;0.17;;
41719;SDS011;27405;53.316;-6.294;2023-02-17T04:08:45;0.85;;;0.20;;
41719;SDS011;27405;53.316;-6.294;2023-02-17T04:11:11;0.28;;;0.28;;
41719;SDS011;27405;53.316;-6.294;2023-02-17T04:13:37;2.10;;;0.40;;
41719;SDS011;27405;53.316;-6.294;2023-02-17T04:16:05;0.43;;;0.35;;
41719;SDS011;27405;53.316;-6.294;2023-02-17T04:18:32;2.95;;;0.47;;
41719;SDS011;27405;53.316;-6.294;2023-02-17T04:20:58;0.22;;;0.22;;
41719;SDS011;27405;53.316;-6.294;2023-02-17T04:23:24;0.73;;;0.40;;
41719;SDS011;27405;53.316;-6.294;2023-02-17T04:25:50;0.80;;;0.30;;
41719;SDS011;27405;53.316;-6.294;2023-02-17T04:28:16;0.50;;;0.30;;
41719;SDS011;27405;53.316;-6.294;2023-02-17T04:30:42;0.32;;;0.28;;
41719;SDS011;27405;53.316;-6.294;2023-02-17T04:33:12;1.23;;;0.30;;
41719;SDS011;27405;53.316;-6.294;2023-02-17T04:35:38;0.43;;;0.30;;
41719;SDS011;27405;53.316;-6.294;2023-02-17T04:38:04;0.30;;;0.30;;
41719;SDS011;27405;53.316;-6.294;2023-02-17T04:40:30;1.05;;;0.40;;
41719;SDS011;27405;53.316;-6.294;2023-02-17T04:42:56;0.63;;;0.40;;
41719;SDS011;27405;53.316;-6.294;2023-02-17T04:45:21;0.30;;;0.30;;
41719;SDS011;27405;53.316;-6.294;2023-02-17T04:47:48;1.48;;;0.30;;
41719;SDS011;27405;53.316;-6.294;2023-02-17T04:50:14;0.32;;;0.32;;
41719;SDS011;27405;53.316;-6.294;2023-02-17T04:52:39;0.60;;;0.30;;
41719;SDS011;27405;53.316;-6.294;2023-02-17T04:55:05;0.85;;;0.20;;
41719;SDS011;27405;53.316;-6.294;2023-02-17T04:57:31;0.95;;;0.30;;
41719;SDS011;27405;53.316;-6.294;2023-02-17T04:59:57;1.95;;;0.35;;
41719;SDS011;27405;53.316;-6.294;2023-02-17T05:02:23;0.55;;;0.30;;
41719;SDS011;27405;53.316;-6.294;2023-02-17T05:04:51;0.30;;;0.30;;
41719;SDS011;27405;53.316;-6.294;2023-02-17T05:07:17;0.57;;;0.30;;
41719;SDS011;27405;53.316;-6.294;2023-02-17T05:09:43;0.35;;;0.20;;
41719;SDS011;27405;53.316;-6.294;2023-02-17T05:12:09;0.20;;;0.20;;
41719;SDS011;27405;53.316;-6.294;2023-02-17T05:14:35;0.25;;;0.25;;
41719;SDS011;27405;53.316;-6.294;2023-02-17T05:17:00;0.20;;;0.20;;
41719;SDS011;27405;53.316;-6.294;2023-02-17T05:19:26;0.20;;;0.20;;
41719;SDS011;27405;53.316;-6.294;2023-02-17T05:21:52;1.30;;;0.20;;
41719;SDS011;27405;53.316;-6.294;2023-02-17T05:24:17;0.15;;;0.15;;
41719;SDS011;27405;53.316;-6.294;2023-02-17T05:26:43;0.90;;;0.20;;
41719;SDS011;27405;53.316;-6.294;2023-02-17T05:29:09;0.10;;;0.10;;
41719;SDS011;27405;53.316;-6.294;2023-02-17T05:31:34;0.68;;;0.30;;
41719;SDS011;27405;53.316;-6.294;2023-02-17T05:34:00;1.33;;;0.15;;
41719;SDS011;27405;53.316;-6.294;2023-02-17T05:36:26;0.30;;;0.20;;
41719;SDS011;27405;53.316;-6.294;2023-02-17T05:38:51;0.90;;;0.30;;
41719;SDS011;27405;53.316;-6.294;2023-02-17T05:41:18;0.22;;;0.20;;
41719;SDS011;27405;53.316;-6.294;2023-02-17T05:43:44;1.35;;;0.32;;
41719;SDS011;27405;53.316;-6.294;2023-02-17T05:46:10;0.20;;;0.20;;
41719;SDS011;27405;53.316;-6.294;2023-02-17T05:48:36;0.30;;;0.30;;
41719;SDS011;27405;53.316;-6.294;2023-02-17T05:51:02;2.17;;;0.20;;
41719;SDS011;27405;53.316;-6.294;2023-02-17T05:53:28;0.20;;;0.20;;
41719;SDS011;27405;53.316;-6.294;2023-02-17T05:55:53;0.70;;;0.20;;
41719;SDS011;27405;53.316;-6.294;2023-02-17T05:58:19;0.65;;;0.40;;
41719;SDS011;27405;53.316;-6.294;2023-02-17T06:00:45;0.35;;;0.35;;
41719;SDS011;27405;53.316;-6.294;2023-02-17T06:03:11;0.20;;;0.20;;
41719;SDS011;27405;53.316;-6.294;2023-02-17T06:05:37;0.22;;;0.22;;
41719;SDS011;27405;53.316;-6.294;2023-02-17T06:08:04;0.10;;;0.10;;
41719;SDS011;27405;53.316;-6.294;2023-02-17T06:10:30;0.47;;;0.40;;
41719;SDS011;27405;53.316;-6.294;2023-02-17T06:12:55;0.20;;;0.20;;
41719;SDS011;27405;53.316;-6.294;2023-02-17T06:15:21;0.43;;;0.20;;
41719;SDS011;27405;53.316;-6.294;2023-02-17T06:17:47;0.73;;;0.30;;
41719;SDS011;27405;53.316;-6.294;2023-02-17T06:20:12;0.43;;;0.20;;
41719;SDS011;27405;53.316;-6.294;2023-02-17T06:22:38;1.08;;;0.20;;
41719;SDS011;27405;53.316;-6.294;2023-02-17T06:25:05;1.48;;;0.30;;
41719;SDS011;27405;53.316;-6.294;2023-02-17T06:27:31;2.40;;;0.63;;
41719;SDS011;27405;53.316;-6.294;2023-02-17T06:29:56;1.52;;;0.32;;
41719;SDS011;27405;53.316;-6.294;2023-02-17T06:32:22;1.10;;;0.30;;
41719;SDS011;27405;53.316;-6.294;2023-02-17T06:34:48;0.20;;;0.20;;
41719;SDS011;27405;53.316;-6.294;2023-02-17T06:37:13;0.63;;;0.30;;
41719;SDS011;27405;53.316;-6.294;2023-02-17T06:39:39;1.60;;;0.25;;
41719;SDS011;27405;53.316;-6.294;2023-02-17T06:42:04;0.30;;;0.30;;
41719;SDS011;27405;53.316;-6.294;2023-02-17T06:44:30;0.82;;;0.40;;
41719;SDS011;27405;53.316;-6.294;2023-02-17T06:46:56;0.80;;;0.40;;
41719;SDS011;27405;53.316;-6.294;2023-02-17T06:49:23;1.67;;;0.50;;
41719;SDS011;27405;53.316;-6.294;2023-02-17T06:51:49;0.93;;;0.40;;
41719;SDS011;27405;53.316;-6.294;2023-02-17T06:54:14;0.80;;;0.40;;
41719;SDS011;27405;53.316;-6.294;2023-02-17T06:56:40;2.30;;;0.65;;
41719;SDS011;27405;53.316;-6.294;2023-02-17T06:59:06;3.42;;;0.75;;
41719;SDS011;27405;53.316;-6.294;2023-02-17T07:01:32;1.08;;;0.50;;
41719;SDS011;27405;53.316;-6.294;2023-02-17T07:03:57;1.10;;;0.55;;
41719;SDS011;27405;53.316;-6.294;2023-02-17T07:06:24;1.05;;;0.50;;
41719;SDS011;27405;53.316;-6.294;2023-02-17T07:08:50;1.98;;;0.88;;
41719;SDS011;27405;53.316;-6.294;2023-02-17T07:11:16;2.53;;;0.80;;
41719;SDS011;27405;53.316;-6.294;2023-02-17T07:13:42;2.15;;;0.40;;
41719;SDS011;27405;53.316;-6.294;2023-02-17T07:16:08;3.05;;;0.70;;
41719;SDS011;27405;53.316;-6.294;2023-02-17T07:18:35;2.17;;;0.93;;
41719;SDS011;27405;53.316;-6.294;2023-02-17T07:21:02;5.57;;;1.30;;
41719;SDS011;27405;53.316;-6.294;2023-02-17T07:23:32;8.70;;;1.48;;
41719;SDS011;27405;53.316;-6.294;2023-02-17T07:26:03;8.43;;;1.85;;
41719;SDS011;27405;53.316;-6.294;2023-02-17T07:28:32;11.93;;;2.28;;
41719;SDS011;27405;53.316;-6.294;2023-02-17T07:31:03;13.52;;;1.95;;
41719;SDS011;27405;53.316;-6.294;2023-02-17T07:33:38;12.88;;;2.08;;
41719;SDS011;27405;53.316;-6.294;2023-02-17T07:36:08;12.48;;;2.13;;
41719;SDS011;27405;53.316;-6.294;2023-02-17T07:38:36;20.10;;;2.83;;
41719;SDS011;27405;53.316;-6.294;2023-02-17T07:41:07;14.23;;;2.72;;
41719;SDS011;27405;53.316;-6.294;2023-02-17T07:43:38;13.00;;;2.75;;
41719;SDS011;27405;53.316;-6.294;2023-02-17T07:46:05;16.80;;;2.65;;
41719;SDS011;27405;53.316;-6.294;2023-02-17T07:48:30;17.25;;;2.80;;
41719;SDS011;27405;53.316;-6.294;2023-02-17T07:50:56;16.83;;;3.38;;
41719;SDS011;27405;53.316;-6.294;2023-02-17T07:53:27;16.50;;;3.67;;
41719;SDS011;27405;53.316;-6.294;2023-02-17T07:55:53;16.38;;;3.08;;
41719;SDS011;27405;53.316;-6.294;2023-02-17T07:58:19;17.80;;;3.50;;
41719;SDS011;27405;53.316;-6.294;2023-02-17T08:00:44;21.52;;;3.33;;
41719;SDS011;27405;53.316;-6.294;2023-02-17T08:03:10;14.98;;;3.13;;
41719;SDS011;27405;53.316;-6.294;2023-02-17T08:05:37;19.70;;;2.88;;
41719;SDS011;27405;53.316;-6.294;2023-02-17T08:08:05;21.30;;;3.45;;
41719;SDS011;27405;53.316;-6.294;2023-02-17T08:10:50;17.30;;;3.30;;
41719;SDS011;27405;53.316;-6.294;2023-02-17T08:13:34;29.55;;;4.25;;
41719;SDS011;27405;53.316;-6.294;2023-02-17T08:15:59;24.05;;;3.88;;
41719;SDS011;27405;53.316;-6.294;2023-02-17T08:18:25;21.92;;;4.00;;
41719;SDS011;27405;53.316;-6.294;2023-02-17T08:20:51;18.88;;;3.72;;
41719;SDS011;27405;53.316;-6.294;2023-02-17T08:23:18;30.08;;;4.75;;
41719;SDS011;27405;53.316;-6.294;2023-02-17T08:25:44;24.75;;;4.22;;
41719;SDS011;27405;53.316;-6.294;2023-02-17T08:28:11;29.27;;;3.92;;
41719;SDS011;27405;53.316;-6.294;2023-02-17T08:30:37;25.90;;;4.95;;
41719;SDS011;27405;53.316;-6.294;2023-02-17T08:33:06;25.40;;;4.32;;
41719;SDS011;27405;53.316;-6.294;2023-02-17T08:35:31;23.85;;;4.55;;
41719;SDS011;27405;53.316;-6.294;2023-02-17T08:37:57;30.10;;;5.25;;
41719;SDS011;27405;53.316;-6.294;2023-02-17T08:40:23;26.58;;;4.88;;
41719;SDS011;27405;53.316;-6.294;2023-02-17T08:42:49;31.33;;;5.65;;
41719;SDS011;27405;53.316;-6.294;2023-02-17T08:45:15;30.15;;;5.78;;
41719;SDS011;27405;53.316;-6.294;2023-02-17T08:47:41;31.15;;;5.53;;
41719;SDS011;27405;53.316;-6.294;2023-02-17T08:50:07;31.92;;;5.72;;
41719;SDS011;27405;53.316;-6.294;2023-02-17T08:52:34;30.70;;;5.32;;
41719;SDS011;27405;53.316;-6.294;2023-02-17T08:55:00;29.75;;;6.10;;
41719;SDS011;27405;53.316;-6.294;2023-02-17T08:57:27;32.10;;;5.57;;
41719;SDS011;27405;53.316;-6.294;2023-02-17T08:59:53;30.58;;;5.57;;
41719;SDS011;27405;53.316;-6.294;2023-02-17T09:02:18;40.17;;;6.50;;
41719;SDS011;27405;53.316;-6.294;2023-02-17T09:04:44;34.70;;;5.68;;
41719;SDS011;27405;53.316;-6.294;2023-02-17T09:07:11;36.33;;;6.13;;
41719;SDS011;27405;53.316;-6.294;2023-02-17T09:09:39;29.70;;;5.25;;
41719;SDS011;27405;53.316;-6.294;2023-02-17T09:12:05;33.83;;;5.28;;
41719;SDS011;27405;53.316;-6.294;2023-02-17T09:14:32;32.58;;;6.30;;
41719;SDS011;27405;53.316;-6.294;2023-02-17T09:16:58;31.73;;;5.82;;
41719;SDS011;27405;53.316;-6.294;2023-02-17T09:19:24;36.30;;;6.22;;
41719;SDS011;27405;53.316;-6.294;2023-02-17T09:21:51;46.08;;;7.75;;
41719;SDS011;27405;53.316;-6.294;2023-02-17T09:24:17;33.53;;;6.13;;
41719;SDS011;27405;53.316;-6.294;2023-02-17T09:26:43;37.40;;;6.68;;
41719;SDS011;27405;53.316;-6.294;2023-02-17T09:29:08;35.38;;;5.82;;
41719;SDS011;27405;53.316;-6.294;2023-02-17T09:31:34;39.58;;;6.18;;
41719;SDS011;27405;53.316;-6.294;2023-02-17T09:34:01;38.50;;;7.95;;
41719;SDS011;27405;53.316;-6.294;2023-02-17T09:36:28;34.55;;;7.18;;
41719;SDS011;27405;53.316;-6.294;2023-02-17T09:38:56;42.58;;;7.38;;
41719;SDS011;27405;53.316;-6.294;2023-02-17T09:43:52;41.63;;;6.70;;
41719;SDS011;27405;53.316;-6.294;2023-02-17T09:46:26;36.95;;;7.95;;
41719;SDS011;27405;53.316;-6.294;2023-02-17T09:48:55;39.20;;;6.93;;
41719;SDS011;27405;53.316;-6.294;2023-02-17T09:51:26;34.17;;;5.63;;
41719;SDS011;27405;53.316;-6.294;2023-02-17T09:56:41;37.60;;;7.10;;
41719;SDS011;27405;53.316;-6.294;2023-02-17T09:59:12;39.25;;;6.68;;
41719;SDS011;27405;53.316;-6.294;2023-02-17T10:01:45;35.97;;;5.78;;
41719;SDS011;27405;53.316;-6.294;2023-02-17T10:04:20;38.38;;;6.88;;
41719;SDS011;27405;53.316;-6.294;2023-02-17T10:06:53;30.92;;;6.38;;
41719;SDS011;27405;53.316;-6.294;2023-02-17T10:09:49;33.38;;;6.97;;
41719;SDS011;27405;53.316;-6.294;2023-02-17T10:12:20;33.05;;;6.38;;
41719;SDS011;27405;53.316;-6.294;2023-02-17T10:14:55;31.05;;;5.93;;
41719;SDS011;27405;53.316;-6.294;2023-02-17T10:22:52;41.35;;;6.80;;
41719;SDS011;27405;53.316;-6.294;2023-02-17T10:25:30;37.50;;;6.90;;
41719;SDS011;27405;53.316;-6.294;2023-02-17T10:28:17;30.58;;;6.10;;
41719;SDS011;27405;53.316;-6.294;2023-02-17T10:31:04;40.67;;;7.75;;
41719;SDS011;27405;53.316;-6.294;2023-02-17T10:33:37;36.28;;;6.25;;
41719;SDS011;27405;53.316;-6.294;2023-02-17T10:39:02;39.40;;;7.13;;
41719;SDS011;27405;53.316;-6.294;2023-02-17T10:41:37;37.72;;;7.10;;
41719;SDS011;27405;53.316;-6.294;2023-02-17T10:44:07;36.63;;;7.15;;
41719;SDS011;27405;53.316;-6.294;2023-02-17T10:46:37;40.60;;;8.38;;
41719;SDS011;27405;53.316;-6.294;2023-02-17T10:49:08;34.72;;;6.60;;
41719;SDS011;27405;53.316;-6.294;2023-02-17T10:51:53;36.03;;;8.13;;
41719;SDS011;27405;53.316;-6.294;2023-02-17T10:54:29;40.40;;;7.93;;
41719;SDS011;27405;53.316;-6.294;2023-02-17T10:57:00;33.55;;;6.35;;
41719;SDS011;27405;53.316;-6.294;2023-02-17T10:59:30;34.55;;;6.75;;
41719;SDS011;27405;53.316;-6.294;2023-02-17T11:02:04;31.27;;;6.93;;
41719;SDS011;27405;53.316;-6.294;2023-02-17T11:04:46;35.42;;;7.00;;
41719;SDS011;27405;53.316;-6.294;2023-02-17T11:07:15;40.05;;;7.63;;
41719;SDS011;27405;53.316;-6.294;2023-02-17T11:09:49;35.40;;;6.80;;
41719;SDS011;27405;53.316;-6.294;2023-02-17T11:12:21;38.80;;;7.10;;
41719;SDS011;27405;53.316;-6.294;2023-02-17T11:14:51;32.95;;;6.15;;
41719;SDS011;27405;53.316;-6.294;2023-02-17T11:20:01;30.42;;;5.93;;
41719;SDS011;27405;53.316;-6.294;2023-02-17T11:22:31;33.28;;;5.85;;
41719;SDS011;27405;53.316;-6.294;2023-02-17T11:25:01;25.63;;;5.38;;
41719;SDS011;27405;53.316;-6.294;2023-02-17T11:27:30;33.60;;;6.30;;
41719;SDS011;27405;53.316;-6.294;2023-02-17T11:30:14;33.28;;;6.15;;
41719;SDS011;27405;53.316;-6.294;2023-02-17T11:32:42;32.50;;;6.28;;
41719;SDS011;27405;53.316;-6.294;2023-02-17T11:38:10;31.70;;;5.67;;
41719;SDS011;27405;53.316;-6.294;2023-02-17T11:40:53;28.95;;;5.38;;
41719;SDS011;27405;53.316;-6.294;2023-02-17T11:43:21;36.17;;;6.40;;
41719;SDS011;27405;53.316;-6.294;2023-02-17T11:46:07;33.65;;;6.03;;
41719;SDS011;27405;53.316;-6.294;2023-02-17T12:08:14;33.40;;;6.65;;
41719;SDS011;27405;53.316;-6.294;2023-02-17T12:10:54;35.45;;;6.38;;
41719;SDS011;27405;53.316;-6.294;2023-02-17T12:16:27;31.48;;;6.32;;
41719;SDS011;27405;53.316;-6.294;2023-02-17T12:24:42;34.40;;;6.10;;
41719;SDS011;27405;53.316;-6.294;2023-02-17T12:35:15;31.05;;;5.88;;
41719;SDS011;27405;53.316;-6.294;2023-02-17T12:37:50;30.67;;;6.85;;
41719;SDS011;27405;53.316;-6.294;2023-02-17T12:40:27;38.20;;;7.25;;
41719;SDS011;27405;53.316;-6.294;2023-02-17T12:43:22;31.80;;;7.55;;
41719;SDS011;27405;53.316;-6.294;2023-02-17T12:45:51;34.20;;;6.68;;
41719;SDS011;27405;53.316;-6.294;2023-02-17T12:51:42;34.85;;;6.55;;
41719;SDS011;27405;53.316;-6.294;2023-02-17T12:58:57;31.00;;;6.05;;
41719;SDS011;27405;53.316;-6.294;2023-02-17T13:01:30;33.75;;;7.80;;
41719;SDS011;27405;53.316;-6.294;2023-02-17T13:03:59;37.80;;;8.95;;
41719;SDS011;27405;53.316;-6.294;2023-02-17T13:06:30;35.92;;;8.38;;
41719;SDS011;27405;53.316;-6.294;2023-02-17T13:14:49;35.45;;;7.60;;
41719;SDS011;27405;53.316;-6.294;2023-02-17T13:17:30;35.08;;;8.13;;
41719;SDS011;27405;53.316;-6.294;2023-02-17T13:20:04;36.95;;;7.30;;
41719;SDS011;27405;53.316;-6.294;2023-02-17T13:22:33;30.70;;;6.22;;
41719;SDS011;27405;53.316;-6.294;2023-02-17T13:24:59;30.55;;;6.82;;
41719;SDS011;27405;53.316;-6.294;2023-02-17T13:32:29;32.13;;;8.27;;
41719;SDS011;27405;53.316;-6.294;2023-02-17T13:34:58;34.05;;;6.45;;
41719;SDS011;27405;53.316;-6.294;2023-02-17T13:39:56;31.95;;;7.47;;
41719;SDS011;27405;53.316;-6.294;2023-02-17T13:44:53;29.55;;;6.75;;
41719;SDS011;27405;53.316;-6.294;2023-02-17T13:47:21;28.27;;;7.28;;
41719;SDS011;27405;53.316;-6.294;2023-02-17T13:49:54;27.40;;;6.13;;
41719;SDS011;27405;53.316;-6.294;2023-02-17T13:52:22;29.48;;;7.18;;
41719;SDS011;27405;53.316;-6.294;2023-02-17T13:54:51;30.63;;;6.97;;
41719;SDS011;27405;53.316;-6.294;2023-02-17T13:57:26;31.75;;;7.38;;
41719;SDS011;27405;53.316;-6.294;2023-02-17T14:00:08;32.30;;;6.22;;
41719;SDS011;27405;53.316;-6.294;2023-02-17T14:02:36;30.67;;;5.85;;
41719;SDS011;27405;53.316;-6.294;2023-02-17T14:05:13;30.73;;;6.85;;
41719;SDS011;27405;53.316;-6.294;2023-02-17T14:07:46;33.67;;;6.90;;
41719;SDS011;27405;53.316;-6.294;2023-02-17T14:10:17;32.78;;;6.82;;
41719;SDS011;27405;53.316;-6.294;2023-02-17T14:12:44;33.63;;;6.72;;
41719;SDS011;27405;53.316;-6.294;2023-02-17T14:15:14;30.70;;;6.85;;
41719;SDS011;27405;53.316;-6.294;2023-02-17T14:17:44;30.70;;;6.10;;
41719;SDS011;27405;53.316;-6.294;2023-02-17T14:25:31;30.23;;;6.57;;
41719;SDS011;27405;53.316;-6.294;2023-02-17T14:27:59;33.15;;;7.07;;
41719;SDS011;27405;53.316;-6.294;2023-02-17T14:35:39;31.42;;;7.38;;
41719;SDS011;27405;53.316;-6.294;2023-02-17T14:38:32;33.05;;;5.97;;
41719;SDS011;27405;53.316;-6.294;2023-02-17T14:41:04;30.95;;;6.93;;
41719;SDS011;27405;53.316;-6.294;2023-02-17T14:43:31;29.77;;;6.53;;
41719;SDS011;27405;53.316;-6.294;2023-02-17T14:45:57;36.58;;;6.10;;
41719;SDS011;27405;53.316;-6.294;2023-02-17T14:48:22;35.15;;;6.38;;
41719;SDS011;27405;53.316;-6.294;2023-02-17T14:50:49;35.08;;;6.95;;
41719;SDS011;27405;53.316;-6.294;2023-02-17T14:53:28;30.75;;;6.40;;
41719;SDS011;27405;53.316;-6.294;2023-02-17T14:58:33;32.08;;;5.95;;
41719;SDS011;27405;53.316;-6.294;2023-02-17T15:00:59;30.55;;;6.05;;
41719;SDS011;27405;53.316;-6.294;2023-02-17T15:03:25;26.85;;;5.85;;
41719;SDS011;27405;53.316;-6.294;2023-02-17T15:05:50;34.17;;;6.80;;
41719;SDS011;27405;53.316;-6.294;2023-02-17T15:08:17;28.63;;;6.15;;
41719;SDS011;27405;53.316;-6.294;2023-02-17T15:10:46;31.08;;;6.10;;
41719;SDS011;27405;53.316;-6.294;2023-02-17T15:13:13;31.08;;;5.35;;
41719;SDS011;27405;53.316;-6.294;2023-02-17T15:15:41;26.48;;;6.07;;
41719;SDS011;27405;53.316;-6.294;2023-02-17T15:18:09;35.20;;;6.95;;
41719;SDS011;27405;53.316;-6.294;2023-02-17T15:20:36;32.22;;;5.63;;
41719;SDS011;27405;53.316;-6.294;2023-02-17T15:23:08;28.73;;;5.75;;
41719;SDS011;27405;53.316;-6.294;2023-02-17T15:25:40;32.55;;;6.88;;
41719;SDS011;27405;53.316;-6.294;2023-02-17T15:28:06;30.40;;;5.53;;
41719;SDS011;27405;53.316;-6.294;2023-02-17T15:30:32;32.67;;;7.00;;
41719;SDS011;27405;53.316;-6.294;2023-02-17T15:33:00;29.73;;;6.00;;
41719;SDS011;27405;53.316;-6.294;2023-02-17T15:35:26;31.13;;;5.85;;
41719;SDS011;27405;53.316;-6.294;2023-02-17T15:37:52;33.47;;;6.07;;
41719;SDS011;27405;53.316;-6.294;2023-02-17T15:40:24;30.83;;;5.70;;
41719;SDS011;27405;53.316;-6.294;2023-02-17T15:42:58;35.55;;;6.35;;
41719;SDS011;27405;53.316;-6.294;2023-02-17T15:45:25;28.25;;;5.53;;
41719;SDS011;27405;53.316;-6.294;2023-02-17T15:47:54;36.63;;;6.10;;
41719;SDS011;27405;53.316;-6.294;2023-02-17T15:50:25;29.23;;;5.78;;
41719;SDS011;27405;53.316;-6.294;2023-02-17T15:52:51;26.13;;;5.85;;
41719;SDS011;27405;53.316;-6.294;2023-02-17T15:55:17;35.70;;;6.05;;
41719;SDS011;27405;53.316;-6.294;2023-02-17T15:57:47;31.63;;;6.10;;
41719;SDS011;27405;53.316;-6.294;2023-02-17T16:05:10;33.15;;;6.55;;
41719;SDS011;27405;53.316;-6.294;2023-02-17T16:07:37;31.38;;;6.25;;
41719;SDS011;27405;53.316;-6.294;2023-02-17T16:10:04;30.73;;;5.95;;
41719;SDS011;27405;53.316;-6.294;2023-02-17T16:12:30;30.73;;;6.00;;
41719;SDS011;27405;53.316;-6.294;2023-02-17T16:14:56;31.23;;;5.70;;
41719;SDS011;27405;53.316;-6.294;2023-02-17T16:17:22;31.40;;;6.07;;
41719;SDS011;27405;53.316;-6.294;2023-02-17T16:19:49;25.58;;;5.40;;
41719;SDS011;27405;53.316;-6.294;2023-02-17T16:22:15;25.77;;;4.55;;
41719;SDS011;27405;53.316;-6.294;2023-02-17T16:24:41;26.75;;;5.07;;
41719;SDS011;27405;53.316;-6.294;2023-02-17T16:27:07;25.92;;;4.50;;
41719;SDS011;27405;53.316;-6.294;2023-02-17T16:29:35;27.90;;;5.20;;
41719;SDS011;27405;53.316;-6.294;2023-02-17T16:32:01;27.92;;;4.65;;
41719;SDS011;27405;53.316;-6.294;2023-02-17T16:34:27;22.10;;;4.63;;
41719;SDS011;27405;53.316;-6.294;2023-02-17T16:39:23;29.30;;;5.25;;